CheckWX is a tool to help pilots better visualize weather data.  It is not intended as a substitute for an official pre-flight weather briefing.

12:18:27 UTC

WSSS METAR
Singapore Changi International Airport
Singapore, Singapore
Current

18 mins ago

WSSS 151200Z 08004KT 040V110 9999 FEW018 BKN300 29/24 Q1009 NOSIG
Observed
Oct-15 @ 12:00 UTC
Wind
  • 080° at 4 KTS
Visibility
10,000+ meters
Flight Rules
VFR
Cloud Levels
  • Few at 1,800' AGL
  • Broken at 30,000' AGL
Temperature
29°C / 84°F
Dewpoint
24°C / 75°F
Heat Index
33°C / 92°F
Humidity
74%
Altimeter
29.79" Hg
Pressure
1008.92 hPa
Previous

48 mins ago

WSSS 151130Z 05005KT 010V080 9999 FEW018 BKN300 29/24 Q1009 NOSIG
Observed
Oct-15 @ 11:30 UTC
Wind
  • 050° at 5 KTS
Visibility
10,000+ meters
Flight Rules
VFR
Cloud Levels
  • Few at 1,800' AGL
  • Broken at 30,000' AGL
Temperature
29°C / 84°F
Dewpoint
24°C / 75°F
Heat Index
33°C / 92°F
Humidity
74%
Altimeter
29.79" Hg
Pressure
1008.92 hPa
Previous

1 hour ago

WSSS 151100Z 06005KT 9999 FEW018 SCT040 BKN300 29/24 Q1009 NOSIG
Observed
Oct-15 @ 11:00 UTC
Wind
  • 060° at 5 KTS
Visibility
10,000+ meters
Flight Rules
VFR
Cloud Levels
  • Few at 1,800' AGL
  • Scattered at 4,000' AGL
  • Broken at 30,000' AGL
Temperature
29°C / 84°F
Dewpoint
24°C / 75°F
Heat Index
33°C / 92°F
Humidity
74%
Altimeter
29.79" Hg
Pressure
1008.92 hPa